NCAR-RAP Real-Time Weather Data

Output produced by METARs form (08 May 2021  16:20 UTC)
found at http://weather.rap.ucar.edu/surface/
 
KBTR 081553Z 20006KT 10SM CLR 27/16 A3010 RMK AO2 SLP192 T02670156
KBTR 081453Z 14006KT 10SM CLR 25/17 A3010 RMK AO2 SLP192 T02500167 51005
KBTR 081353Z 13006KT 10SM CLR 22/15 A3009 RMK AO2 SLP190 T02220150
KBTR 081253Z VRB03KT 10SM CLR 18/14 A3009 RMK AO2 SLP190 T01780139
KBTR 081153Z 00000KT 10SM CLR 15/12 A3008 RMK AO2 SLP187 T01500117 10161 20133 53003
KBTR 081053Z 00000KT 10SM CLR 14/12 A3006 RMK AO2 SLP179 T01390117
KBTR 080953Z 07004KT 10SM CLR 14/12 A3007 RMK AO2 SLP182 T01440117
KBTR 080853Z AUTO 00000KT 10SM CLR 14/13 A3007 RMK AO2 SLP183 T01440128 56005
KBTR 080753Z 00000KT 10SM CLR 15/13 A3008 RMK AO2 SLP184 T01500128
KBTR 080653Z 00000KT 10SM CLR 16/13 A3008 RMK AO2 SLP185 T01610128
KBTR 080553Z 03003KT 10SM CLR 16/14 A3009 RMK AO2 SLP188 T01610139 10267 20156 402890133 53002
KBTR 080453Z 05003KT 10SM CLR 17/14 A3008 RMK AO2 SLP187 T01670139
KBTR 080353Z 00000KT 10SM CLR 18/14 A3008 RMK AO2 SLP186 T01830139
KBTR 080253Z 07003KT 10SM CLR 18/14 A3008 RMK AO2 SLP186 T01780139 51006
KBTR 080153Z 00000KT 10SM CLR 20/14 A3008 RMK AO2 SLP186 T02000139
KBTR 080053Z 00000KT 10SM CLR 24/12 A3008 RMK AO2 SLP184 T02390122
KBTR 072353Z 35003KT 10SM CLR 27/11 A3007 RMK AO2 SLP180 T02670106 10289 20267 56014
KBTR 072253Z 35005KT 10SM CLR 28/10 A3008 RMK AO2 SLP187 T02780100
KBTR 072153Z 35009KT 10SM CLR 28/09 A3009 RMK AO2 SLP188 T02830094
KBTR 072053Z 29009KT 10SM CLR 28/09 A3011 RMK AO2 SLP195 T02830094 58020
KBTR 071953Z VRB06KT 10SM CLR 29/12 A3013 RMK AO2 SLP202 T02890117
KBTR 071853Z 33008KT 300V020 10SM CLR 28/11 A3015 RMK AO2 SLP209 T02830106
KBTR 071753Z 10SM CLR 27/09 A3017 RMK AO2 SLP215 T02720094 10278 20161 58011
KBTR 071653Z VRB04KT 10SM CLR 27/10 A3019 RMK AO2 SLP222 T02670100
KBTR 071553Z 36005KT 10SM CLR 26/12 A3020 RMK AO2 SLP225 T02560122
KBTR 071453Z 01004KT 10SM CLR 23/13 A3020 RMK AO2 SLP226 T02330128 51017
KBTR 071353Z 03005KT 10SM CLR 21/13 A3019 RMK AO2 SLP222 T02110128
KBTR 071253Z 31003KT 10SM CLR 18/14 A3018 RMK AO2 SLP218 T01830144
KBTR 071153Z 32005KT 10SM CLR 16/13 A3015 RMK AO2 SLP209 T01610133 10161 20133 53014
KBTR 071053Z 00000KT 10SM FEW002 14/12 A3013 RMK AO2 SLP200 T01390122
KBTR 070953Z 00000KT 10SM CLR 14/12 A3011 RMK AO2 SLP195 T01390122
KBTR 070853Z AUTO 00000KT 10SM CLR 14/13 A3011 RMK AO2 SLP195 T01440128 55008
KBTR 070753Z AUTO 00000KT 10SM CLR 14/13 A3011 RMK AO2 SLP194 T01440128
KBTR 070653Z AUTO 00000KT 10SM CLR 15/13 A3012 RMK AO2 SLP197 T01500128
KBTR 070553Z AUTO 00000KT 10SM CLR 16/13 A3013 RMK AO2 SLP202 T01560133 10261 20156 402830144 50001
KBTR 070453Z AUTO 00000KT 10SM CLR 16/13 A3014 RMK AO2 SLP205 T01610133
KBTR 070353Z 36003KT 10SM CLR 18/13 A3014 RMK AO2 SLP206 T01780133
KBTR 070253Z 35004KT 10SM CLR 20/12 A3013 RMK AO2 SLP202 T02000122 53018
KBTR 070153Z 34004KT 10SM CLR 22/12 A3011 RMK AO2 SLP195 T02170122
KBTR 070053Z 33003KT 10SM CLR 22/13 A3009 RMK AO2 SLP187 T02170128
KBTR 062353Z 01004KT 10SM CLR 26/11 A3008 RMK AO2 SLP184 T02610106 10283 20256 56008
KBTR 062253Z AUTO 36007KT 10SM CLR 27/09 A3008 RMK AO2 SLP186 T02720094
KBTR 062153Z AUTO 36005KT 10SM CLR 28/12 A3008 RMK AO2 SLP186 T02780117
KBTR 062053Z 34007KT 310V030 10SM CLR 28/12 A3010 RMK AO2 SLP193 T02780117 58016
KBTR 061953Z VRB03KT 10SM CLR 27/12 A3012 RMK AO2 SLP199 T02720122
KBTR 061853Z VRB04KT 10SM CLR 27/13 A3013 RMK AO2 SLP203 T02670128
KBTR 061753Z 03005KT 10SM CLR 26/13 A3015 RMK AO2 SLP209 T02560128 10256 20150 58002
KBTR 061653Z 02008KT 10SM CLR 24/14 A3015 RMK AO2 SLP209 T02440139